createdAt,value
2022-08-09T00:00:06.493Z,1026.59
2022-08-09T00:10:01.296Z,1026.60
2022-08-09T00:15:07.135Z,1026.60
2022-08-09T00:25:09.999Z,1026.58
2022-08-09T00:45:16.443Z,1026.66
2022-08-09T00:50:01.556Z,1026.78
2022-08-09T01:00:20.416Z,1026.80
2022-08-09T01:15:10.138Z,1026.78
2022-08-09T01:25:02.928Z,1026.89
2022-08-09T01:30:02.282Z,1026.95
2022-08-09T01:40:03.069Z,1027.00
2022-08-09T01:45:01.418Z,1027.00
2022-08-09T01:50:06.645Z,1027.00
2022-08-09T02:10:04.397Z,1027.09
2022-08-09T02:15:01.288Z,1027.09
2022-08-09T02:25:06.715Z,1027.09
2022-08-09T02:30:01.928Z,1027.07
2022-08-09T02:45:06.921Z,1027.16
2022-08-09T03:15:01.296Z,1027.26
2022-08-09T03:30:04.763Z,1027.29
2022-08-09T03:40:05.079Z,1027.26
2022-08-09T03:45:01.299Z,1027.26
2022-08-09T03:50:02.680Z,1027.23
2022-08-09T04:00:02.259Z,1027.29
2022-08-09T04:05:17.288Z,1027.29
2022-08-09T04:15:17.418Z,1027.37
2022-08-09T04:20:02.915Z,1027.44
2022-08-09T04:30:02.329Z,1027.49
2022-08-09T04:35:01.827Z,1027.49
2022-08-09T04:40:02.297Z,1027.58
2022-08-09T04:45:02.150Z,1027.58
2022-08-09T04:50:01.285Z,1027.67
2022-08-09T05:00:05.229Z,1027.77
2022-08-09T05:05:10.311Z,1027.77
2022-08-09T05:10:02.484Z,1027.88
2022-08-09T05:15:11.290Z,1027.88
2022-08-09T05:20:02.029Z,1028.00
2022-08-09T05:25:09.274Z,1028.00
2022-08-09T05:30:02.540Z,1028.11
2022-08-09T05:35:01.250Z,1028.11
2022-08-09T05:40:01.429Z,1028.23
2022-08-09T05:45:02.739Z,1028.23
2022-08-09T05:55:08.880Z,1028.37
2022-08-09T06:00:02.422Z,1028.35
2022-08-09T06:05:01.362Z,1028.35
2022-08-09T06:10:03.649Z,1028.32
2022-08-09T06:15:09.931Z,1028.32
2022-08-09T06:20:01.403Z,1027.99
2022-08-09T06:25:01.676Z,1027.99
2022-08-09T06:30:10.145Z,1027.59
2022-08-09T06:35:06.502Z,1027.59
2022-08-09T06:50:16.769Z,1027.47
2022-08-09T06:55:12.702Z,1027.47
2022-08-09T07:25:01.358Z,1027.76
2022-08-09T07:30:02.662Z,1027.72
2022-08-09T07:35:07.849Z,1027.72
2022-08-09T07:40:01.492Z,1027.66
2022-08-09T07:45:15.117Z,1027.66
2022-08-09T07:50:09.199Z,1027.66
2022-08-09T07:55:09.833Z,1027.66
2022-08-09T08:00:04.305Z,1027.61
2022-08-09T08:05:11.504Z,1027.61
2022-08-09T08:10:11.266Z,1027.63
2022-08-09T08:15:01.438Z,1027.63
2022-08-09T08:20:01.309Z,1027.63
2022-08-09T08:25:01.708Z,1027.63
2022-08-09T08:30:04.592Z,1027.68
2022-08-09T08:35:01.472Z,1027.68
2022-08-09T08:40:03.080Z,1027.65
2022-08-09T08:45:14.023Z,1027.65
2022-08-09T08:50:03.123Z,1027.69
2022-08-09T08:55:05.786Z,1027.69
2022-08-09T09:00:13.040Z,1027.76
2022-08-09T09:05:10.030Z,1027.76
2022-08-09T09:10:06.978Z,1027.74
2022-08-09T09:15:07.036Z,1027.74
2022-08-09T09:20:01.351Z,1027.83
2022-08-09T09:30:37.629Z,1027.80
2022-08-09T09:45:03.443Z,1027.69
2022-08-09T09:55:02.650Z,1027.73
2022-08-09T10:00:03.650Z,1027.63
2022-08-09T10:05:06.846Z,1027.63
2022-08-09T10:10:03.436Z,1027.62
2022-08-09T10:15:01.669Z,1027.62
2022-08-09T10:20:01.349Z,1027.60
2022-08-09T10:50:03.318Z,1027.37
2022-08-09T11:00:03.134Z,1027.32
2022-08-09T11:05:31.182Z,1027.32
2022-08-09T11:10:01.321Z,1027.35
2022-08-09T11:15:00.545Z,1027.35
2022-08-09T11:20:20.666Z,1027.29
2022-08-09T11:25:01.907Z,1027.29
2022-08-09T11:40:00.805Z,1027.28
2022-08-09T11:45:00.597Z,1027.28
2022-08-09T11:55:00.830Z,1027.25
2022-08-09T12:00:07.341Z,1027.25
2022-08-09T12:05:01.340Z,1027.25
2022-08-09T12:10:02.533Z,1027.16
2022-08-09T12:15:09.297Z,1027.16
2022-08-09T12:20:00.586Z,1027.13
2022-08-09T12:25:01.384Z,1027.13
2022-08-09T12:35:04.974Z,1027.11
2022-08-09T12:40:01.476Z,1027.06
2022-08-09T12:45:00.632Z,1027.06
2022-08-09T12:50:00.776Z,1027.07
2022-08-09T13:00:05.460Z,1027.04
2022-08-09T13:05:02.966Z,1027.04
2022-08-09T13:10:01.732Z,1026.95
2022-08-09T13:15:00.673Z,1026.95
2022-08-09T13:20:12.857Z,1026.98
2022-08-09T13:25:04.019Z,1026.98
2022-08-09T13:35:02.510Z,1026.98
2022-08-09T13:45:00.562Z,1026.99
2022-08-09T13:50:01.955Z,1026.97
2022-08-09T13:55:05.673Z,1026.97
2022-08-09T14:00:01.337Z,1026.99
2022-08-09T14:20:04.215Z,1026.90
2022-08-09T14:25:01.293Z,1026.90
2022-08-09T14:35:00.848Z,1026.90
2022-08-09T14:40:00.903Z,1026.88
2022-08-09T14:45:01.659Z,1026.88
2022-08-09T14:50:02.783Z,1026.85
2022-08-09T14:55:00.854Z,1026.85
2022-08-09T15:00:01.355Z,1026.84
2022-08-09T15:05:17.135Z,1026.84
2022-08-09T15:10:16.006Z,1026.90
2022-08-09T15:15:00.846Z,1026.90
2022-08-09T15:20:03.058Z,1026.80
2022-08-09T15:35:01.315Z,1026.81
2022-08-09T15:45:00.948Z,1026.84
2022-08-09T15:50:05.648Z,1026.77
2022-08-09T16:00:02.150Z,1026.76
2022-08-09T16:05:06.842Z,1026.76
2022-08-09T16:10:05.657Z,1026.75
2022-08-09T16:15:01.009Z,1026.75
2022-08-09T16:20:08.782Z,1026.68
2022-08-09T16:25:02.799Z,1026.68
2022-08-09T16:30:02.731Z,1026.61
2022-08-09T16:35:02.721Z,1026.61
2022-08-09T16:40:06.225Z,1026.59
2022-08-09T16:45:00.809Z,1026.59
2022-08-09T17:00:02.735Z,1026.43
2022-08-09T17:05:20.195Z,1026.43
2022-08-09T17:10:04.330Z,1026.37
2022-08-09T17:15:01.077Z,1026.37
2022-08-09T17:25:11.586Z,1026.43
2022-08-09T17:30:13.089Z,1026.41
2022-08-09T17:35:12.874Z,1026.41
2022-08-09T17:40:01.545Z,1026.50
2022-08-09T17:45:01.333Z,1026.50
2022-08-09T17:50:17.048Z,1026.52
2022-08-09T17:55:01.598Z,1026.52
2022-08-09T18:00:07.740Z,1026.55
2022-08-09T18:05:15.632Z,1026.55
2022-08-09T18:15:15.714Z,1026.46
2022-08-09T18:25:00.821Z,1026.50
2022-08-09T18:35:00.665Z,1026.47
2022-08-09T18:40:00.862Z,1026.56
2022-08-09T18:45:01.487Z,1026.56
2022-08-09T18:50:03.519Z,1026.80
2022-08-09T18:55:00.659Z,1026.80
2022-08-09T19:00:04.748Z,1026.89
2022-08-09T19:10:18.025Z,1027.21
2022-08-09T19:15:02.942Z,1027.21
2022-08-09T19:20:02.386Z,1027.33
2022-08-09T19:35:02.545Z,1027.39
2022-08-09T19:40:05.700Z,1027.50
2022-08-09T19:45:00.653Z,1027.50
2022-08-09T19:55:01.350Z,1027.52
2022-08-09T20:00:07.970Z,1027.44
2022-08-09T20:10:17.505Z,1027.69
2022-08-09T20:15:00.710Z,1027.69
2022-08-09T20:20:00.724Z,1027.66
2022-08-09T20:25:01.043Z,1027.66
2022-08-09T20:30:00.859Z,1027.69
2022-08-09T20:35:02.194Z,1027.69
2022-08-09T20:50:00.829Z,1027.83
2022-08-09T20:55:03.257Z,1027.83
2022-08-09T21:10:01.145Z,1027.97
2022-08-09T21:15:02.037Z,1027.97
2022-08-09T21:25:00.899Z,1027.81
2022-08-09T21:30:01.471Z,1027.84
2022-08-09T21:40:02.411Z,1027.85
2022-08-09T21:45:01.016Z,1027.85
2022-08-09T21:50:03.320Z,1027.89
2022-08-09T22:00:02.012Z,1027.88
2022-08-09T22:10:02.072Z,1027.89
2022-08-09T22:15:01.230Z,1027.89
2022-08-09T22:20:01.321Z,1027.99
2022-08-09T22:30:02.036Z,1027.99
2022-08-09T22:36:00.619Z,1027.99
2022-08-09T23:00:02.296Z,1028.02
2022-08-09T23:05:00.963Z,1028.02
2022-08-09T23:15:00.966Z,1028.03
2022-08-09T23:20:08.522Z,1027.94
2022-08-09T23:30:01.051Z,1027.81
2022-08-09T23:35:00.982Z,1027.81
2022-08-09T23:45:00.987Z,1027.92
2022-08-09T23:50:00.948Z,1027.93
